Time;durP1;ratioP1;P1;durP2;ratioP2;P2;SDS_P1;SDS_P2;PMS_P1;PMS_P2;Temp;Humidity;BMP_temperature;BMP_pressure;BME280_temperature;BME280_humidity;BME280_pressure;Samples;Min_cycle;Max_cycle;Signal;HPM_P1;HPM_P2
2022/08/22 00:00:29;;;;;;;2.13;1.90;;;21.90;52.90;;;;;;5030927;28;20464;-47
2022/08/22 00:03:34;;;;;;;1.73;1.63;;;21.90;52.60;;;;;;5063671;28;20452;-47
2022/08/22 00:06:20;;;;;;;1.70;1.40;;;21.80;53.00;;;;;;5070513;28;20463;-47
2022/08/22 00:08:58;;;;;;;2.73;1.70;;;21.80;53.10;;;;;;5083915;28;20471;-47
2022/08/22 00:11:37;;;;;;;1.67;1.30;;;21.70;53.20;;;;;;5085651;28;20471;-47
2022/08/22 00:14:27;;;;;;;3.87;1.57;;;21.70;53.20;;;;;;5063864;28;20474;-47
2022/08/22 00:17:03;;;;;;;3.53;1.67;;;21.70;53.50;;;;;;5085410;28;20833;-47
2022/08/22 00:19:46;;;;;;;2.17;1.83;;;21.70;53.50;;;;;;5068847;28;20453;-47
2022/08/22 00:22:39;;;;;;;5.20;2.23;;;21.70;53.70;;;;;;5063063;28;20942;-47
2022/08/22 00:25:33;;;;;;;3.57;1.67;;;21.70;53.70;;;;;;5067936;28;20957;-47
2022/08/22 00:28:40;;;;;;;2.30;1.47;;;21.60;53.80;;;;;;5071737;28;20464;-47
2022/08/22 00:31:31;;;;;;;2.53;1.63;;;21.60;53.60;;;;;;5046704;28;20464;-46
2022/08/22 00:34:35;;;;;;;2.13;1.33;;;21.60;53.40;;;;;;5086750;28;20452;-48
2022/08/22 00:37:16;;;;;;;4.40;1.50;;;21.50;53.40;;;;;;5087193;28;20460;-48
2022/08/22 00:39:58;;;;;;;2.93;1.20;;;21.50;53.30;;;;;;5070324;28;21369;-48
2022/08/22 00:43:00;;;;;;;6.47;1.63;;;21.40;53.40;;;;;;5084653;28;20846;-48
2022/08/22 00:45:38;;;;;;;1.60;1.40;;;21.40;53.20;;;;;;5086603;28;20472;-47
2022/08/22 00:48:25;;;;;;;1.50;1.20;;;21.40;53.10;;;;;;5087444;28;21004;-48
2022/08/22 00:50:59;;;;;;;1.60;1.40;;;21.40;53.70;;;;;;5084844;28;20468;-48
2022/08/22 00:53:56;;;;;;;1.70;1.50;;;21.30;53.50;;;;;;5062855;28;20511;-46
2022/08/22 00:56:41;;;;;;;4.13;1.47;;;21.30;53.70;;;;;;5060074;28;20452;-49
2022/08/22 00:59:22;;;;;;;2.23;1.47;;;21.30;53.80;;;;;;5078011;28;20549;-48
2022/08/22 01:02:09;;;;;;;5.57;1.40;;;21.30;53.80;;;;;;5085310;28;20476;-48
2022/08/22 01:04:45;;;;;;;1.47;1.37;;;21.30;54.10;;;;;;5082927;28;20539;-47
2022/08/22 01:07:40;;;;;;;1.70;1.40;;;21.30;54.00;;;;;;5087735;28;20478;-48
2022/08/22 01:10:13;;;;;;;2.30;1.60;;;21.30;53.90;;;;;;5038317;28;20464;-46
2022/08/22 01:12:52;;;;;;;2.77;1.57;;;21.30;53.80;;;;;;5084335;28;20504;-47
2022/08/22 01:15:26;;;;;;;1.67;1.20;;;21.30;53.60;;;;;;5083397;28;20456;-46
2022/08/22 01:18:20;;;;;;;2.60;1.67;;;21.20;54.00;;;;;;5085549;28;20440;-46
2022/08/22 01:21:18;;;;;;;3.50;1.60;;;21.20;54.00;;;;;;5081649;28;20460;-46
2022/08/22 01:23:58;;;;;;;1.70;1.20;;;21.20;54.20;;;;;;5082582;28;20456;-47
2022/08/22 01:26:58;;;;;;;1.77;1.10;;;21.20;54.00;;;;;;5087256;28;20463;-47
2022/08/22 01:30:13;;;;;;;3.77;1.43;;;21.20;54.20;;;;;;5084001;28;20841;-47
2022/08/22 01:33:15;;;;;;;2.47;1.60;;;21.20;53.90;;;;;;5085829;28;21048;-47
2022/08/22 01:36:01;;;;;;;4.63;1.77;;;21.10;54.00;;;;;;5084037;28;20456;-47
2022/08/22 01:39:08;;;;;;;1.80;1.13;;;21.10;54.30;;;;;;5085699;28;20467;-47
2022/08/22 01:41:56;;;;;;;1.80;1.50;;;21.10;54.50;;;;;;5083077;28;20911;-46
2022/08/22 01:44:44;;;;;;;4.70;1.60;;;21.10;54.60;;;;;;5065122;28;20464;-47
2022/08/22 01:47:28;;;;;;;1.63;1.53;;;21.10;54.70;;;;;;5081615;28;20487;-47
2022/08/22 01:50:24;;;;;;;2.47;1.63;;;21.00;54.80;;;;;;5061009;28;20460;-47
2022/08/22 01:53:06;;;;;;;1.60;1.13;;;21.00;55.00;;;;;;5084428;28;20495;-46
2022/08/22 01:55:45;;;;;;;2.70;1.70;;;21.00;55.10;;;;;;5057092;28;20457;-46
2022/08/22 01:58:20;;;;;;;1.43;1.27;;;21.00;55.20;;;;;;5067503;28;20480;-46
2022/08/22 02:01:07;;;;;;;3.27;1.60;;;21.00;55.30;;;;;;5064935;28;20451;-46
2022/08/22 02:04:05;;;;;;;3.33;1.27;;;21.00;55.00;;;;;;5087618;28;20945;-47
2022/08/22 02:06:49;;;;;;;1.93;1.63;;;21.00;55.30;;;;;;5063266;28;20475;-47
2022/08/22 02:09:30;;;;;;;1.83;1.40;;;21.00;55.40;;;;;;5080368;28;20499;-47
2022/08/22 02:12:21;;;;;;;3.50;1.47;;;21.00;55.30;;;;;;5069522;28;20539;-49
2022/08/22 02:15:18;;;;;;;1.77;1.50;;;21.00;55.50;;;;;;5072547;28;20456;-49
2022/08/22 02:17:58;;;;;;;1.43;1.33;;;21.00;55.60;;;;;;5074627;28;20459;-49
2022/08/22 02:20:42;;;;;;;3.50;1.50;;;21.00;55.50;;;;;;5092571;28;20448;-50
2022/08/22 02:23:35;;;;;;;2.97;1.47;;;21.00;55.70;;;;;;5089111;28;20461;-50
2022/08/22 02:26:02;;;;;;;3.40;1.63;;;20.90;55.70;;;;;;5085882;28;20460;-50
2022/08/22 02:28:53;;;;;;;1.87;1.40;;;20.90;55.80;;;;;;5073217;28;20835;-50
2022/08/22 02:32:01;;;;;;;2.27;1.73;;;20.90;56.00;;;;;;5090693;28;20456;-50
2022/08/22 02:34:37;;;;;;;1.93;1.40;;;20.80;56.10;;;;;;4991162;28;20464;-50
2022/08/22 02:37:55;;;;;;;2.30;1.50;;;20.80;56.40;;;;;;4990718;28;20464;-50
2022/08/22 02:40:48;;;;;;;3.13;1.73;;;20.80;56.50;;;;;;5027629;28;21378;-50
2022/08/22 02:43:23;;;;;;;3.57;1.50;;;20.80;56.40;;;;;;5090098;28;20468;-49
2022/08/22 02:46:04;;;;;;;1.97;1.67;;;20.70;56.60;;;;;;5071398;28;20460;-50
2022/08/22 02:48:46;;;;;;;3.37;1.33;;;20.80;56.60;;;;;;5075011;28;20513;-50
2022/08/22 02:51:26;;;;;;;2.83;1.80;;;20.70;56.70;;;;;;5090548;28;20460;-50
2022/08/22 02:54:07;;;;;;;1.70;1.60;;;20.70;56.80;;;;;;5094024;28;20499;-47
2022/08/22 02:56:51;;;;;;;3.80;1.60;;;20.70;56.80;;;;;;5088439;28;20468;-47
2022/08/22 02:59:23;;;;;;;4.03;1.90;;;20.70;56.80;;;;;;5087773;28;20471;-47
2022/08/22 03:01:50;;;;;;;1.93;1.73;;;20.70;57.00;;;;;;5087889;28;20459;-47
2022/08/22 03:04:44;;;;;;;3.50;1.80;;;20.60;57.10;;;;;;5089556;28;20802;-47
2022/08/22 03:07:20;;;;;;;3.07;1.37;;;20.60;57.20;;;;;;5089585;28;20472;-47
2022/08/22 03:10:10;;;;;;;1.80;1.63;;;20.60;57.20;;;;;;5090520;28;20460;-47
2022/08/22 03:12:55;;;;;;;4.33;1.70;;;20.50;57.40;;;;;;5064275;28;20860;-47
2022/08/22 03:15:44;;;;;;;2.10;1.73;;;20.50;57.30;;;;;;5090458;28;20460;-47
2022/08/22 03:18:39;;;;;;;1.63;1.53;;;20.50;57.40;;;;;;5091930;28;20879;-47
2022/08/22 03:21:24;;;;;;;3.00;1.63;;;20.50;57.50;;;;;;5089462;28;20461;-46
2022/08/22 03:24:02;;;;;;;1.83;1.30;;;20.50;57.50;;;;;;5088467;28;20465;-47
2022/08/22 03:26:42;;;;;;;2.57;1.77;;;20.50;57.50;;;;;;5085289;28;20965;-47
2022/08/22 03:29:21;;;;;;;2.50;1.73;;;20.50;57.50;;;;;;5071058;28;20471;-47
2022/08/22 03:32:14;;;;;;;4.03;1.47;;;20.50;57.80;;;;;;5079842;28;20464;-47
2022/08/22 03:35:07;;;;;;;1.63;1.53;;;20.40;57.80;;;;;;5087187;28;20832;-47
2022/08/22 03:37:39;;;;;;;2.23;1.47;;;20.40;57.90;;;;;;5090999;28;20448;-47
2022/08/22 03:40:53;;;;;;;4.97;1.97;;;20.40;58.00;;;;;;5065560;28;20819;-46
2022/08/22 03:43:38;;;;;;;2.50;1.70;;;20.30;58.10;;;;;;5066633;28;20468;-47
2022/08/22 03:46:16;;;;;;;2.90;2.10;;;20.30;58.30;;;;;;5082781;28;20465;-47
2022/08/22 03:49:08;;;;;;;1.70;1.60;;;20.20;58.40;;;;;;5086161;28;20840;-47
2022/08/22 03:51:55;;;;;;;7.00;2.40;;;20.20;58.40;;;;;;5068547;28;20479;-46
2022/08/22 03:54:49;;;;;;;2.53;1.87;;;20.10;58.30;;;;;;5018343;28;20492;-47
2022/08/22 03:57:46;;;;;;;3.13;1.80;;;20.10;58.30;;;;;;5083897;28;20479;-47
2022/08/22 04:00:34;;;;;;;3.13;2.20;;;20.10;58.60;;;;;;5084634;28;20471;-50
2022/08/22 04:03:26;;;;;;;2.83;2.10;;;20.10;58.70;;;;;;5083564;28;20467;-51
2022/08/22 04:06:10;;;;;;;2.93;1.87;;;20.00;58.90;;;;;;5081197;28;20471;-50
2022/08/22 04:09:15;;;;;;;1.70;1.47;;;20.00;58.90;;;;;;5087884;28;20551;-50
2022/08/22 04:12:12;;;;;;;2.83;2.10;;;20.00;59.10;;;;;;5084904;28;21116;-50
2022/08/22 04:15:20;;;;;;;2.00;1.80;;;20.00;59.40;;;;;;5085893;28;20489;-50
2022/08/22 04:17:59;;;;;;;3.10;2.40;;;19.90;59.40;;;;;;4969718;28;20735;-50
2022/08/22 04:20:49;;;;;;;5.07;2.17;;;19.90;59.30;;;;;;4970660;28;20470;-50
2022/08/22 04:23:37;;;;;;;6.13;1.60;;;19.90;59.50;;;;;;5053591;28;20468;-50
2022/08/22 04:26:23;;;;;;;3.70;2.20;;;19.90;59.40;;;;;;5084855;28;20457;-50
2022/08/22 04:29:02;;;;;;;2.10;1.90;;;19.90;59.60;;;;;;5067464;28;20468;-49
2022/08/22 04:31:35;;;;;;;6.63;2.37;;;19.90;59.80;;;;;;5083232;28;20468;-50
2022/08/22 04:34:15;;;;;;;2.40;2.20;;;19.90;59.90;;;;;;5085959;28;20519;-50
2022/08/22 04:36:49;;;;;;;3.43;2.23;;;19.80;59.90;;;;;;5087929;28;20874;-50
2022/08/22 04:39:22;;;;;;;2.60;2.27;;;19.80;60.10;;;;;;5080918;28;20456;-51
2022/08/22 04:41:54;;;;;;;2.27;1.93;;;19.80;60.30;;;;;;5066067;28;20464;-51
2022/08/22 04:44:49;;;;;;;3.00;2.20;;;19.70;60.40;;;;;;5085835;28;20460;-50
2022/08/22 04:47:30;;;;;;;2.53;2.30;;;19.70;60.40;;;;;;5064012;28;20465;-50
2022/08/22 04:50:18;;;;;;;2.73;2.33;;;19.80;60.40;;;;;;5084170;28;20465;-50
2022/08/22 04:52:47;;;;;;;3.40;2.13;;;19.80;60.40;;;;;;5085696;28;21007;-51
2022/08/22 04:55:38;;;;;;;4.53;2.00;;;19.80;60.60;;;;;;5086470;28;20467;-50
2022/08/22 04:58:47;;;;;;;5.00;2.73;;;19.80;60.50;;;;;;5064156;28;20481;-51
2022/08/22 05:01:24;;;;;;;5.53;2.30;;;19.70;60.70;;;;;;5060518;28;20529;-50
2022/08/22 05:04:19;;;;;;;2.73;2.43;;;19.70;60.80;;;;;;5075351;28;20467;-50
2022/08/22 05:07:03;;;;;;;2.13;1.93;;;19.70;61.00;;;;;;5066513;28;20473;-50
2022/08/22 05:09:34;;;;;;;2.80;2.03;;;19.80;61.10;;;;;;5083515;28;21008;-50
2022/08/22 05:12:07;;;;;;;2.30;2.10;;;19.80;61.30;;;;;;5082834;28;20482;-51
2022/08/22 05:14:42;;;;;;;4.70;1.90;;;19.80;61.40;;;;;;5083015;28;20497;-50
2022/08/22 05:17:14;;;;;;;2.50;2.20;;;19.80;61.50;;;;;;5079949;28;20453;-50
2022/08/22 05:19:51;;;;;;;3.10;1.83;;;19.80;61.50;;;;;;5065019;28;20601;-50
2022/08/22 05:22:26;;;;;;;3.23;2.03;;;19.80;61.50;;;;;;5059352;28;20448;-49
2022/08/22 05:25:01;;;;;;;3.30;2.47;;;19.90;61.50;;;;;;5054461;28;20912;-50
2022/08/22 05:27:33;;;;;;;3.20;2.60;;;19.90;61.50;;;;;;5082629;28;20452;-50
2022/08/22 05:30:05;;;;;;;4.53;2.23;;;19.90;61.50;;;;;;5085146;28;20973;-50
2022/08/22 05:32:53;;;;;;;5.00;2.50;;;19.90;61.50;;;;;;5067239;28;20472;-50
2022/08/22 05:35:38;;;;;;;2.50;2.00;;;20.00;61.50;;;;;;5083955;28;20478;-50
2022/08/22 05:38:09;;;;;;;2.43;1.97;;;20.00;61.60;;;;;;5083203;28;20464;-49
2022/08/22 05:40:37;;;;;;;3.40;2.00;;;20.10;61.60;;;;;;5083126;28;20946;-50
2022/08/22 05:43:08;;;;;;;3.80;2.10;;;20.10;61.60;;;;;;5095587;28;20469;-49
2022/08/22 05:45:37;;;;;;;2.20;2.00;;;20.20;61.60;;;;;;5086272;28;20472;-46
2022/08/22 05:48:17;;;;;;;2.37;2.17;;;20.20;61.70;;;;;;5082656;28;20840;-46
2022/08/22 05:50:48;;;;;;;2.60;2.40;;;20.30;61.60;;;;;;5082882;28;20453;-46
2022/08/22 05:53:37;;;;;;;5.27;2.57;;;20.30;61.50;;;;;;5081812;28;20488;-46
2022/08/22 05:56:09;;;;;;;2.40;2.17;;;20.40;61.60;;;;;;5083032;28;20543;-47
2022/08/22 05:58:41;;;;;;;2.37;2.17;;;20.50;61.50;;;;;;5083423;28;21170;-47
2022/08/22 06:01:40;;;;;;;3.07;2.40;;;20.50;61.60;;;;;;5081437;28;20456;-47
2022/08/22 06:04:17;;;;;;;3.73;1.70;;;20.60;61.20;;;;;;5066765;28;20965;-47
2022/08/22 06:07:07;;;;;;;5.40;2.40;;;20.60;60.80;;;;;;5084565;28;20468;-47
2022/08/22 06:09:40;;;;;;;3.83;2.60;;;20.70;61.10;;;;;;5084461;28;20464;-47
2022/08/22 06:12:30;;;;;;;4.33;2.40;;;20.70;60.30;;;;;;5082222;28;20801;-47
2022/08/22 06:15:04;;;;;;;5.50;2.20;;;20.80;59.70;;;;;;5075699;28;20912;-50
2022/08/22 06:18:00;;;;;;;5.50;2.70;;;20.90;59.40;;;;;;5083957;28;20465;-49
2022/08/22 06:20:47;;;;;;;5.67;2.73;;;21.00;60.20;;;;;;5083483;28;20459;-50
2022/08/22 06:23:21;;;;;;;4.57;2.47;;;21.10;59.10;;;;;;5046391;28;20460;-50
2022/08/22 06:25:51;;;;;;;2.87;2.40;;;21.20;58.40;;;;;;5085578;28;20440;-46
2022/08/22 06:28:24;;;;;;;4.27;3.43;;;21.30;58.20;;;;;;5094182;28;20465;-49
2022/08/22 06:30:54;;;;;;;5.17;3.97;;;21.30;58.80;;;;;;5079154;28;20460;-49
2022/08/22 06:33:25;;;;;;;3.87;2.60;;;21.40;58.60;;;;;;5091117;28;21098;-47
2022/08/22 06:36:31;;;;;;;4.30;2.33;;;21.50;58.60;;;;;;5085807;28;20448;-46
2022/08/22 06:39:17;;;;;;;2.73;2.30;;;21.60;57.60;;;;;;5084362;28;20879;-47
2022/08/22 06:41:53;;;;;;;6.40;2.70;;;21.60;57.50;;;;;;5084481;28;20680;-46
2022/08/22 06:44:30;;;;;;;6.43;3.37;;;21.70;57.10;;;;;;5085029;28;20463;-47
2022/08/22 06:47:00;;;;;;;6.03;2.87;;;21.70;56.40;;;;;;5079620;28;20460;-47
2022/08/22 06:49:29;;;;;;;3.40;3.03;;;21.80;56.40;;;;;;5077293;28;20456;-47
2022/08/22 06:52:00;;;;;;;3.20;2.33;;;21.90;56.10;;;;;;5075883;28;20463;-47
2022/08/22 06:54:33;;;;;;;13.53;3.70;;;21.90;55.80;;;;;;5076612;28;20503;-47
2022/08/22 06:57:02;;;;;;;2.43;2.23;;;21.90;55.70;;;;;;5082944;28;20883;-47
2022/08/22 06:59:31;;;;;;;3.80;2.93;;;22.00;55.70;;;;;;5086200;28;20871;-47
2022/08/22 07:02:07;;;;;;;5.47;3.67;;;22.10;55.70;;;;;;5087107;28;20464;-47
2022/08/22 07:04:35;;;;;;;4.13;2.67;;;22.20;55.70;;;;;;5063427;28;20543;-47
2022/08/22 07:07:02;;;;;;;3.47;3.17;;;22.20;55.60;;;;;;5080650;28;20464;-47
2022/08/22 07:09:39;;;;;;;4.50;3.27;;;22.30;55.70;;;;;;5069941;28;20448;-47
2022/08/22 07:12:18;;;;;;;4.07;3.27;;;22.40;55.50;;;;;;5086095;28;20464;-47
2022/08/22 07:14:52;;;;;;;5.00;2.80;;;22.50;55.40;;;;;;5083579;28;20569;-47
2022/08/22 07:17:29;;;;;;;4.03;2.90;;;22.50;55.20;;;;;;5062859;28;20471;-47
2022/08/22 07:19:59;;;;;;;4.97;2.90;;;22.60;54.90;;;;;;5085254;28;20448;-47
2022/08/22 07:22:31;;;;;;;4.23;2.60;;;22.60;55.00;;;;;;5083877;28;20455;-47
2022/08/22 07:25:09;;;;;;;5.43;3.10;;;22.60;55.00;;;;;;5058766;28;20824;-47
2022/08/22 07:28:12;;;;;;;3.30;3.00;;;22.60;54.90;;;;;;5077889;28;20575;-47
2022/08/22 07:30:58;;;;;;;3.50;3.20;;;22.70;54.90;;;;;;5079898;28;20456;-47
2022/08/22 07:33:39;;;;;;;3.23;2.90;;;22.90;54.60;;;;;;5066761;28;20825;-47
2022/08/22 07:36:27;;;;;;;3.70;3.07;;;22.90;54.40;;;;;;5068518;28;20459;-47
2022/08/22 07:39:27;;;;;;;3.27;2.70;;;22.90;54.40;;;;;;5067835;28;20447;-47
2022/08/22 07:42:09;;;;;;;5.00;3.53;;;23.00;54.50;;;;;;5061426;28;20445;-47
2022/08/22 07:44:59;;;;;;;7.30;3.77;;;23.00;54.20;;;;;;5083747;28;20468;-47
2022/08/22 07:47:38;;;;;;;4.27;3.97;;;23.10;54.10;;;;;;5061464;28;20459;-47
2022/08/22 07:50:09;;;;;;;5.73;3.43;;;23.10;54.10;;;;;;5087950;28;20454;-47
2022/08/22 07:52:41;;;;;;;5.10;3.10;;;23.20;54.10;;;;;;5088449;28;20467;-48
2022/08/22 07:55:28;;;;;;;3.60;3.27;;;23.30;53.90;;;;;;5065993;28;20492;-47
2022/08/22 07:58:03;;;;;;;4.13;3.07;;;23.30;53.80;;;;;;5071123;28;20480;-47
2022/08/22 08:00:31;;;;;;;5.47;3.43;;;23.30;53.90;;;;;;5084418;28;20569;-47
2022/08/22 08:03:04;;;;;;;3.33;3.00;;;23.30;53.90;;;;;;5057084;28;20459;-47
2022/08/22 08:05:35;;;;;;;4.40;2.93;;;23.30;54.10;;;;;;5084525;28;20467;-47
2022/08/22 08:08:07;;;;;;;4.00;3.27;;;23.40;54.10;;;;;;5084441;28;20468;-47
2022/08/22 08:10:41;;;;;;;5.63;3.80;;;23.40;54.00;;;;;;5064019;28;20543;-47
2022/08/22 08:13:20;;;;;;;4.93;3.50;;;23.50;53.90;;;;;;5086307;28;20914;-47
2022/08/22 08:15:49;;;;;;;3.43;2.77;;;23.50;53.90;;;;;;5068763;28;20458;-47
2022/08/22 08:18:20;;;;;;;6.43;3.10;;;23.70;53.70;;;;;;5084788;28;20816;-47
2022/08/22 08:21:00;;;;;;;12.40;3.80;;;23.80;53.30;;;;;;5064768;28;20471;-48
2022/08/22 08:23:34;;;;;;;3.50;2.87;;;23.80;53.10;;;;;;5069787;28;20475;-47
2022/08/22 08:26:18;;;;;;;4.37;2.67;;;23.90;52.80;;;;;;5069217;28;20459;-47
2022/08/22 08:28:49;;;;;;;5.30;3.03;;;23.90;52.80;;;;;;5084106;28;20944;-48
2022/08/22 08:31:23;;;;;;;3.70;3.00;;;23.90;52.70;;;;;;5068418;28;20460;-47
2022/08/22 08:34:04;;;;;;;7.87;3.33;;;24.00;52.80;;;;;;5065456;28;20498;-47
2022/08/22 08:36:48;;;;;;;6.80;3.40;;;24.00;52.70;;;;;;5070485;28;20458;-47
2022/08/22 08:39:25;;;;;;;2.97;2.73;;;24.10;52.70;;;;;;5069134;28;20459;-48
2022/08/22 08:42:14;;;;;;;4.90;3.40;;;24.20;52.80;;;;;;5085015;28;20531;-47
2022/08/22 08:44:48;;;;;;;3.80;2.90;;;24.30;52.80;;;;;;5083309;28;20470;-47
2022/08/22 08:47:20;;;;;;;6.00;3.00;;;24.40;52.80;;;;;;5085818;28;21071;-47
2022/08/22 08:50:17;;;;;;;3.83;3.33;;;24.50;52.40;;;;;;5063951;28;21058;-48
2022/08/22 08:53:19;;;;;;;4.90;3.03;;;24.60;52.20;;;;;;5083943;28;20843;-47
2022/08/22 08:55:56;;;;;;;6.83;4.07;;;24.70;52.30;;;;;;5014815;28;20491;-47
2022/08/22 08:58:45;;;;;;;5.67;3.07;;;24.80;52.10;;;;;;5045031;28;20832;-47
2022/08/22 09:01:45;;;;;;;7.17;4.40;;;24.90;51.40;;;;;;5060212;28;20464;-48
2022/08/22 09:04:21;;;;;;;5.20;3.63;;;25.00;51.10;;;;;;5062645;28;20763;-47
2022/08/22 09:07:23;;;;;;;3.87;2.87;;;25.00;51.00;;;;;;5056048;28;20853;-47
2022/08/22 09:10:25;;;;;;;3.80;2.90;;;25.20;51.00;;;;;;5085103;28;20820;-47
2022/08/22 09:13:31;;;;;;;5.43;3.30;;;25.40;51.00;;;;;;5048952;28;20456;-47
2022/08/22 09:16:25;;;;;;;4.23;3.83;;;25.50;50.70;;;;;;5080511;28;20484;-47
2022/08/22 09:19:26;;;;;;;5.07;3.63;;;25.70;50.30;;;;;;5082595;28;20517;-48
2022/08/22 09:22:18;;;;;;;5.93;3.90;;;25.90;49.60;;;;;;5030718;28;20455;-47
2022/08/22 09:25:21;;;;;;;6.57;4.20;;;26.00;49.40;;;;;;5068669;28;20451;-47
2022/08/22 09:28:15;;;;;;;4.83;3.57;;;26.20;49.20;;;;;;5033040;28;20524;-47
2022/08/22 09:31:22;;;;;;;5.53;3.73;;;26.40;48.90;;;;;;5067541;28;20460;-47
2022/08/22 09:34:19;;;;;;;4.33;4.00;;;26.50;48.50;;;;;;5031417;28;20471;-48
2022/08/22 09:37:17;;;;;;;3.90;3.50;;;26.70;48.40;;;;;;5084003;28;20439;-47
2022/08/22 09:39:58;;;;;;;6.40;4.80;;;26.80;48.20;;;;;;5084832;28;20949;-47
2022/08/22 09:42:57;;;;;;;8.03;4.43;;;26.90;48.00;;;;;;5086412;28;20497;-47
2022/08/22 09:45:39;;;;;;;4.03;3.67;;;27.00;47.90;;;;;;5068457;28;20467;-47
2022/08/22 09:48:36;;;;;;;4.87;4.40;;;27.10;47.80;;;;;;5082626;28;20499;-47
2022/08/22 09:51:17;;;;;;;5.23;4.73;;;27.20;47.70;;;;;;5079873;28;20468;-47
2022/08/22 09:54:25;;;;;;;4.17;3.77;;;27.30;47.60;;;;;;5084445;28;21007;-47
2022/08/22 09:57:25;;;;;;;4.37;3.97;;;27.50;47.40;;;;;;5076189;28;20486;-47
2022/08/22 10:00:04;;;;;;;4.70;4.00;;;27.60;47.00;;;;;;5074180;28;20460;-47
2022/08/22 10:02:42;;;;;;;4.80;4.40;;;27.80;46.50;;;;;;5058747;28;20444;-47
2022/08/22 10:05:26;;;;;;;6.10;4.43;;;27.90;46.30;;;;;;5081243;28;20457;-47
2022/08/22 10:08:13;;;;;;;5.43;3.73;;;28.10;46.20;;;;;;5069909;28;20226;-47
2022/08/22 10:10:53;;;;;;;5.37;4.87;;;28.30;46.10;;;;;;5077338;28;20658;-47
2022/08/22 10:13:43;;;;;;;5.53;4.10;;;28.50;45.80;;;;;;5043014;28;20484;-47
2022/08/22 10:16:51;;;;;;;4.13;3.73;;;28.60;45.60;;;;;;5078033;28;20601;-47
2022/08/22 10:19:36;;;;;;;4.50;4.00;;;28.80;45.10;;;;;;4998664;28;20204;-47
2022/08/22 10:22:35;;;;;;;4.25;3.95;;;29.00;44.80;;;;;;5081306;28;20592;-47
2022/08/22 10:25:30;;;;;;;4.28;3.80;;;29.00;44.70;;;;;;5082649;28;20213;-47
2022/08/22 10:28:45;;;;;;;5.93;3.53;;;29.00;44.50;;;;;;5082814;28;20213;-47
2022/08/22 10:31:46;;;;;;;4.40;4.00;;;29.00;44.80;;;;;;4998161;28;20215;-47
2022/08/22 10:34:35;;;;;;;4.63;4.20;;;29.00;44.60;;;;;;5004451;28;20224;-47
2022/08/22 10:37:23;;;;;;;4.53;3.78;;;29.00;44.40;;;;;;5082484;28;20675;-47
2022/08/22 10:40:28;;;;;;;4.07;3.77;;;29.00;44.30;;;;;;5082434;28;20217;-47
2022/08/22 10:43:11;;;;;;;4.23;3.73;;;29.00;44.10;;;;;;5022087;28;20675;-47
2022/08/22 10:45:44;;;;;;;4.33;3.60;;;28.90;44.30;;;;;;5076317;28;20255;-47
2022/08/22 10:48:57;;;;;;;5.30;3.30;;;28.80;43.10;;;;;;5062587;28;20210;-47
2022/08/22 10:51:38;;;;;;;5.93;3.63;;;28.80;42.90;;;;;;5067893;28;20213;-47
2022/08/22 10:54:25;;;;;;;3.80;3.43;;;28.90;42.60;;;;;;5066608;28;20698;-47
2022/08/22 10:57:13;;;;;;;6.23;3.60;;;29.00;42.60;;;;;;5072883;28;20725;-47
2022/08/22 11:00:17;;;;;;;3.30;3.00;;;29.00;42.80;;;;;;5070589;28;20209;-47
2022/08/22 11:03:14;;;;;;;3.65;3.35;;;28.90;43.00;;;;;;5085365;28;20683;-47
2022/08/22 11:05:51;;;;;;;6.23;3.80;;;28.70;42.80;;;;;;5072371;28;20210;-48
2022/08/22 11:08:26;;;;;;;4.83;3.60;;;28.60;42.30;;;;;;5083187;28;20218;-47
2022/08/22 11:11:28;;;;;;;4.10;3.70;;;28.50;42.60;;;;;;5083797;28;20202;-47
2022/08/22 11:14:16;;;;;;;4.17;3.77;;;28.30;43.40;;;;;;5036145;28;20271;-47
2022/08/22 11:17:02;;;;;;;4.70;3.30;;;28.30;42.90;;;;;;5087228;28;20209;-47
2022/08/22 11:20:24;;;;;;;8.17;2.90;;;28.10;41.60;;;;;;5067847;28;20579;-48
2022/08/22 11:23:27;;;;;;;3.53;3.23;;;28.10;41.30;;;;;;5065812;28;21353;-47
2022/08/22 11:26:14;;;;;;;4.33;2.60;;;28.10;41.70;;;;;;5048378;28;20364;-47
2022/08/22 11:29:05;;;;;;;4.13;3.10;;;28.00;42.30;;;;;;5080386;28;20209;-47
2022/08/22 11:31:42;;;;;;;3.43;3.07;;;28.00;42.20;;;;;;5067620;28;20210;-47
2022/08/22 11:34:35;;;;;;;4.63;3.00;;;28.00;42.10;;;;;;5056056;28;20202;-47
2022/08/22 11:37:03;;;;;;;3.63;3.33;;;27.90;42.30;;;;;;5083664;28;20229;-47
2022/08/22 11:39:43;;;;;;;3.23;2.90;;;27.90;42.30;;;;;;5062442;28;20463;-47
2022/08/22 11:42:19;;;;;;;4.40;3.50;;;27.80;42.40;;;;;;5087734;28;20842;-47
2022/08/22 11:44:53;;;;;;;6.43;3.10;;;27.80;42.40;;;;;;5084366;28;20459;-47
2022/08/22 11:47:26;;;;;;;3.50;3.20;;;27.70;42.30;;;;;;5068122;28;20221;-47
2022/08/22 11:50:12;;;;;;;2.67;2.40;;;27.70;42.10;;;;;;5085021;28;20202;-48
2022/08/22 11:52:51;;;;;;;5.50;3.10;;;27.60;41.90;;;;;;5085942;28;20638;-48
2022/08/22 11:55:35;;;;;;;4.30;3.43;;;27.70;41.40;;;;;;5088014;28;20490;-48
2022/08/22 11:58:14;;;;;;;4.07;3.10;;;27.60;41.80;;;;;;5086573;28;20485;-47
2022/08/22 12:00:55;;;;;;;4.10;3.07;;;27.60;42.00;;;;;;5085138;28;20460;-47
2022/08/22 12:03:55;;;;;;;5.47;3.60;;;27.70;41.30;;;;;;5083863;28;21158;-47
2022/08/22 12:06:50;;;;;;;5.47;3.10;;;27.70;41.60;;;;;;5081356;28;21222;-47
2022/08/22 12:09:24;;;;;;;5.00;3.37;;;27.70;41.70;;;;;;5067543;28;20564;-47
2022/08/22 12:12:14;;;;;;;2.70;2.50;;;27.70;41.50;;;;;;5081442;28;20202;-47
2022/08/22 12:14:51;;;;;;;4.43;2.60;;;27.80;41.50;;;;;;5067563;28;20760;-47
2022/08/22 12:17:45;;;;;;;8.10;3.60;;;27.80;41.60;;;;;;5088576;28;20275;-47
2022/08/22 12:21:12;;;;;;;3.87;3.37;;;27.70;41.60;;;;;;5085570;28;20456;-47
2022/08/22 12:24:10;;;;;;;5.67;3.10;;;27.80;41.30;;;;;;5085267;28;20447;-47
2022/08/22 12:27:22;;;;;;;3.60;2.77;;;27.80;41.40;;;;;;5064060;28;20455;-47
2022/08/22 12:30:34;;;;;;;3.80;2.70;;;27.80;40.50;;;;;;5041866;28;20206;-47
2022/08/22 12:33:31;;;;;;;3.40;3.10;;;27.90;40.30;;;;;;5078734;28;20225;-47
2022/08/22 12:36:10;;;;;;;4.60;3.10;;;27.90;40.80;;;;;;5087763;28;20230;-47
2022/08/22 12:39:23;;;;;;;4.67;2.87;;;27.90;40.60;;;;;;5086498;28;20259;-47
2022/08/22 12:42:11;;;;;;;3.57;3.23;;;27.90;40.50;;;;;;5085542;28;20231;-47
2022/08/22 12:45:11;;;;;;;4.27;3.40;;;27.90;40.90;;;;;;5087772;28;20213;-48
2022/08/22 12:47:55;;;;;;;4.30;3.10;;;27.90;41.40;;;;;;5088037;28;20455;-47
2022/08/22 12:50:37;;;;;;;3.20;2.90;;;27.90;41.70;;;;;;5087023;28;20237;-47
2022/08/22 12:53:22;;;;;;;3.77;2.87;;;27.90;41.90;;;;;;5086493;28;20236;-47
2022/08/22 12:56:17;;;;;;;4.90;3.20;;;27.90;42.10;;;;;;5066738;28;20229;-47
2022/08/22 12:59:08;;;;;;;4.17;3.20;;;27.90;42.40;;;;;;5084962;28;20683;-47
2022/08/22 13:01:45;;;;;;;5.77;3.47;;;27.90;42.50;;;;;;5086916;28;20244;-47
2022/08/22 13:04:18;;;;;;;5.73;3.57;;;27.90;42.70;;;;;;5088454;28;20529;-47
2022/08/22 13:06:59;;;;;;;4.43;3.07;;;27.90;42.50;;;;;;5086738;28;20851;-47
2022/08/22 13:09:30;;;;;;;6.33;4.00;;;27.90;42.20;;;;;;5071154;28;20206;-47
2022/08/22 13:12:17;;;;;;;4.40;3.17;;;27.90;41.90;;;;;;5067445;28;20506;-47
2022/08/22 13:14:50;;;;;;;4.23;3.03;;;27.90;41.60;;;;;;5069224;28;20482;-47
2022/08/22 13:17:20;;;;;;;4.03;3.10;;;27.90;41.60;;;;;;5066352;28;20682;-47
2022/08/22 13:20:18;;;;;;;4.10;3.07;;;27.90;41.50;;;;;;5084447;28;20209;-47
2022/08/22 13:22:46;;;;;;;3.00;2.80;;;27.90;40.20;;;;;;5083703;28;20205;-47
2022/08/22 13:25:28;;;;;;;4.70;3.40;;;28.00;40.10;;;;;;5084175;28;20301;-47
2022/08/22 13:28:01;;;;;;;5.53;3.10;;;28.00;40.40;;;;;;5066262;28;20210;-48
2022/08/22 13:30:34;;;;;;;3.40;3.10;;;28.00;40.50;;;;;;5085745;28;20251;-47
2022/08/22 13:33:24;;;;;;;3.10;2.80;;;28.00;40.90;;;;;;5082753;28;20287;-47
2022/08/22 13:36:14;;;;;;;6.87;3.10;;;28.00;40.60;;;;;;5084598;28;20562;-47
2022/08/22 13:38:52;;;;;;;2.73;2.53;;;28.00;40.60;;;;;;5067355;28;20206;-47
2022/08/22 13:41:44;;;;;;;3.33;2.80;;;28.00;40.50;;;;;;5085928;28;20486;-47
2022/08/22 13:44:21;;;;;;;3.00;2.77;;;28.10;40.40;;;;;;5082819;28;20220;-47
2022/08/22 13:46:49;;;;;;;4.90;3.10;;;28.10;40.40;;;;;;5069553;28;20206;-47
2022/08/22 13:50:03;;;;;;;2.90;2.70;;;28.10;41.00;;;;;;5084026;28;20236;-47
2022/08/22 13:52:35;;;;;;;2.77;2.57;;;28.10;40.30;;;;;;5083081;28;20581;-47
2022/08/22 13:55:21;;;;;;;3.17;2.87;;;28.10;40.20;;;;;;5087338;28;20553;-47
2022/08/22 13:58:07;;;;;;;2.97;2.67;;;28.00;40.60;;;;;;5085431;28;20481;-47
2022/08/22 14:01:09;;;;;;;3.87;3.13;;;28.00;41.00;;;;;;5085675;28;20210;-48
2022/08/22 14:03:48;;;;;;;6.77;2.97;;;28.00;40.50;;;;;;5086297;28;20267;-47
2022/08/22 14:06:27;;;;;;;8.20;3.03;;;28.00;40.60;;;;;;5069041;28;20451;-47
2022/08/22 14:09:40;;;;;;;3.50;2.93;;;28.00;40.80;;;;;;5062302;28;20477;-47
2022/08/22 14:12:15;;;;;;;3.23;2.80;;;28.00;40.80;;;;;;5076268;28;20213;-47
2022/08/22 14:14:47;;;;;;;3.30;3.00;;;28.10;40.70;;;;;;5084105;28;20643;-48
2022/08/22 14:17:22;;;;;;;2.77;2.57;;;28.00;41.00;;;;;;5070303;28;20202;-47
2022/08/22 14:20:01;;;;;;;3.83;2.63;;;28.00;40.70;;;;;;5084796;28;20198;-47